Time;durP1;ratioP1;P1;durP2;ratioP2;P2;SDS_P1;SDS_P2;PMS_P1;PMS_P2;Temp;Humidity;BMP_temperature;BMP_pressure;BME280_temperature;BME280_humidity;BME280_pressure;Samples;Min_cycle;Max_cycle;Signal;HPM_P1;HPM_P2
2022/03/26 00:00:35;;;;;;;1.80;0.50;;;;;;;18.33;31.53;101143.66;4931886;29;20051;-78
2022/03/26 00:03:03;;;;;;;1.50;0.50;;;;;;;18.29;34.05;101147.13;4931332;29;20051;-80
2022/03/26 00:05:31;;;;;;;1.08;0.50;;;;;;;18.19;33.74;101141.84;4932495;29;20553;-78
2022/03/26 00:08:00;;;;;;;1.77;0.50;;;;;;;18.12;33.47;101134.81;4935080;29;20095;-78
2022/03/26 00:10:28;;;;;;;1.58;0.50;;;;;;;18.11;35.80;101140.91;4934448;28;20094;-78
2022/03/26 00:12:57;;;;;;;3.10;0.60;;;;;;;18.06;33.20;101133.91;4931672;29;20541;-79
2022/03/26 00:15:28;;;;;;;0.90;0.60;;;;;;;18.03;34.32;101132.16;4931900;29;20464;-78
2022/03/26 00:17:57;;;;;;;1.38;0.60;;;;;;;18.02;34.55;101134.75;4931373;29;20051;-79
2022/03/26 00:20:25;;;;;;;2.22;0.88;;;;;;;17.98;33.43;101126.00;4931943;29;20131;-80
2022/03/26 00:22:54;;;;;;;1.48;0.63;;;;;;;17.85;34.40;101125.09;4931632;29;20060;-81
2022/03/26 00:25:22;;;;;;;2.83;0.90;;;;;;;17.87;35.51;101119.88;4931495;29;20118;-80
2022/03/26 00:27:51;;;;;;;1.77;0.63;;;;;;;17.94;34.75;101119.91;4931479;29;20055;-80
2022/03/26 00:30:19;;;;;;;1.45;0.80;;;;;;;18.00;35.38;101113.81;4931680;29;20048;-78
2022/03/26 00:32:49;;;;;;;1.33;0.60;;;;;;;18.02;34.57;101114.69;4931695;29;20502;-78
2022/03/26 00:35:18;;;;;;;3.47;0.73;;;;;;;17.97;33.45;101114.66;4930722;29;20135;-82
2022/03/26 00:37:46;;;;;;;2.70;0.65;;;;;;;17.98;34.92;101115.53;4931828;29;20115;-81
2022/03/26 00:40:15;;;;;;;2.70;0.70;;;;;;;18.03;34.06;101116.47;4933763;29;20055;-77
2022/03/26 00:42:43;;;;;;;2.47;0.70;;;;;;;18.04;34.68;101119.94;4934833;29;20482;-78
2022/03/26 00:45:12;;;;;;;1.33;0.68;;;;;;;18.06;34.73;101110.34;4934595;29;20079;-80
2022/03/26 00:47:41;;;;;;;4.10;1.30;;;;;;;18.09;34.98;101111.22;4935334;29;20051;-79
2022/03/26 00:50:12;;;;;;;2.75;0.77;;;;;;;18.11;35.68;101114.72;4934361;29;20110;-78
2022/03/26 00:52:40;;;;;;;1.27;0.70;;;;;;;18.10;35.54;101110.38;4934865;29;20083;-78
2022/03/26 00:55:09;;;;;;;1.58;0.60;;;;;;;18.07;35.41;101120.81;4934376;29;20563;-80
2022/03/26 00:57:38;;;;;;;1.23;0.47;;;;;;;18.07;34.74;101110.34;4935136;29;20092;-80
2022/03/26 01:00:08;;;;;;;3.42;1.10;;;;;;;18.03;35.51;101115.56;4935128;29;20095;-81
2022/03/26 01:02:37;;;;;;;1.63;0.75;;;;;;;17.99;35.33;101112.94;4938142;29;20087;-80
2022/03/26 01:05:06;;;;;;;2.50;0.90;;;;;;;17.97;35.95;101113.78;4935176;29;20115;-79
2022/03/26 01:07:36;;;;;;;2.28;1.02;;;;;;;17.86;35.16;101107.63;4935512;29;20434;-80
2022/03/26 01:10:06;;;;;;;3.47;1.00;;;;;;;17.70;35.17;101109.25;4935205;28;20232;-79
2022/03/26 01:12:35;;;;;;;3.58;0.80;;;;;;;17.57;35.58;101108.31;4934700;29;20051;-79
2022/03/26 01:15:03;;;;;;;3.00;0.70;;;;;;;17.44;36.61;101101.25;4938044;29;20585;-80
2022/03/26 01:17:32;;;;;;;1.90;0.70;;;;;;;17.31;38.60;101101.16;4935508;29;20051;-79
2022/03/26 01:20:01;;;;;;;2.50;0.90;;;;;;;17.20;39.08;101097.56;4934856;29;20497;-78
2022/03/26 01:22:29;;;;;;;1.80;0.80;;;;;;;17.12;38.03;101094.03;4934405;29;20109;-79
2022/03/26 01:24:59;;;;;;;1.92;0.77;;;;;;;17.03;38.42;101091.34;4933968;29;20059;-79
2022/03/26 01:27:28;;;;;;;2.03;0.70;;;;;;;16.98;39.42;101095.66;4934333;29;20047;-78
2022/03/26 01:29:56;;;;;;;1.80;0.70;;;;;;;16.93;40.01;101093.88;4933794;29;20051;-78
2022/03/26 01:32:25;;;;;;;1.15;0.90;;;;;;;16.86;38.33;101092.09;4933955;29;20083;-80
2022/03/26 01:34:53;;;;;;;1.35;0.80;;;;;;;16.74;38.68;101089.31;4934252;29;20501;-79
2022/03/26 01:37:23;;;;;;;1.70;0.70;;;;;;;16.71;40.10;101092.75;4934313;29;20067;-77
2022/03/26 01:39:52;;;;;;;2.58;0.90;;;;;;;16.65;39.81;101091.81;4934299;29;20051;-80
2022/03/26 01:42:22;;;;;;;3.35;0.90;;;;;;;16.60;39.78;101099.63;4933457;29;20040;-78
2022/03/26 01:44:51;;;;;;;8.50;1.20;;;;;;;16.57;39.51;101093.50;4934076;29;20473;-79
2022/03/26 01:47:20;;;;;;;1.20;0.70;;;;;;;16.51;40.11;101095.16;4934520;29;20105;-81
2022/03/26 01:49:48;;;;;;;2.05;0.60;;;;;;;16.45;42.35;101087.28;4933536;29;20644;-79
2022/03/26 01:52:17;;;;;;;4.78;1.00;;;;;;;16.41;41.49;101092.47;4933328;29;20062;-79
2022/03/26 01:54:46;;;;;;;3.10;0.75;;;;;;;16.36;42.83;101089.81;4933708;29;20497;-79
2022/03/26 01:57:15;;;;;;;1.60;0.77;;;;;;;16.33;43.92;101084.53;4936188;29;20067;-77
2022/03/26 01:59:45;;;;;;;2.33;0.82;;;;;;;16.23;42.58;101073.09;4936284;29;20147;-78
2022/03/26 02:02:15;;;;;;;2.47;0.80;;;;;;;16.24;42.19;101084.41;4934053;29;20103;-79
2022/03/26 02:04:43;;;;;;;2.90;0.90;;;;;;;16.20;42.20;101082.66;4933652;29;20559;-77
2022/03/26 02:07:12;;;;;;;3.35;0.88;;;;;;;16.15;43.02;101080.00;4933657;29;20127;-78
2022/03/26 02:09:40;;;;;;;1.38;0.80;;;;;;;16.13;43.53;101079.09;4934238;28;20059;-79
2022/03/26 02:12:27;;;;;;;3.05;1.10;;;;;;;16.13;43.13;101081.69;4933391;29;20142;-79
2022/03/26 02:14:59;;;;;;;3.53;1.23;;;;;;;16.11;43.43;101079.06;4933547;29;20102;-78
2022/03/26 02:17:28;;;;;;;1.13;0.82;;;;;;;16.09;42.98;101080.78;4933400;29;20127;-78
2022/03/26 02:19:59;;;;;;;1.60;0.82;;;;;;;16.07;43.35;101081.63;4933221;29;20059;-77
2022/03/26 02:22:29;;;;;;;1.42;0.70;;;;;;;16.05;42.93;101080.72;4933234;29;20181;-78
2022/03/26 02:24:58;;;;;;;1.13;0.60;;;;;;;15.98;44.21;101079.78;4932886;29;20059;-79
2022/03/26 02:27:28;;;;;;;2.20;0.80;;;;;;;15.89;43.70;101082.25;4933453;29;20090;-78
2022/03/26 02:29:57;;;;;;;2.33;0.95;;;;;;;15.83;45.12;101077.84;4932753;29;20577;-78
2022/03/26 02:32:27;;;;;;;0.82;0.50;;;;;;;15.76;50.25;101083.84;4932983;29;20051;-79
2022/03/26 02:34:57;;;;;;;2.47;0.90;;;;;;;15.61;49.69;101066.22;4932775;29;20102;-77
2022/03/26 02:37:26;;;;;;;1.48;0.70;;;;;;;15.40;48.43;101053.75;4933334;29;20111;-78
2022/03/26 02:39:54;;;;;;;3.28;0.80;;;;;;;15.35;51.74;101062.38;4932481;29;20059;-77
2022/03/26 02:42:23;;;;;;;2.85;0.80;;;;;;;15.28;53.52;101058.78;4932951;29;20048;-78
2022/03/26 02:44:51;;;;;;;2.58;0.70;;;;;;;15.23;54.73;101057.81;4932819;29;20111;-78
2022/03/26 02:47:20;;;;;;;1.63;0.73;;;;;;;15.13;54.34;101062.03;4931782;29;20494;-77
2022/03/26 02:49:49;;;;;;;1.70;1.13;;;;;;;15.10;51.78;101064.59;4932410;29;20111;-77
2022/03/26 02:52:19;;;;;;;4.65;1.85;;;;;;;15.08;50.87;101064.56;4934774;29;20098;-78
2022/03/26 02:54:47;;;;;;;4.57;1.27;;;;;;;15.06;49.79;101065.38;4935789;29;20134;-78
2022/03/26 02:57:16;;;;;;;1.13;0.80;;;;;;;15.02;49.89;101054.03;4932850;29;20080;-78
2022/03/26 02:59:44;;;;;;;4.65;0.80;;;;;;;14.98;49.61;101056.56;4932863;29;20091;-79
2022/03/26 03:02:13;;;;;;;2.25;1.05;;;;;;;14.93;49.73;101053.88;4933032;29;20108;-79
2022/03/26 03:04:41;;;;;;;4.32;1.15;;;;;;;14.94;49.68;101065.19;4932959;29;20126;-78
2022/03/26 03:07:10;;;;;;;4.85;1.30;;;;;;;14.91;49.73;101060.78;4935106;29;20051;-78
2022/03/26 03:09:40;;;;;;;2.58;1.10;;;;;;;14.84;49.55;101052.03;4935104;28;20648;-78
2022/03/26 03:12:09;;;;;;;5.78;1.10;;;;;;;14.83;49.97;101068.50;4932413;29;20067;-79
2022/03/26 03:14:39;;;;;;;5.50;1.38;;;;;;;14.77;50.98;101068.38;4932371;29;20395;-78
2022/03/26 03:17:07;;;;;;;2.53;1.00;;;;;;;14.72;50.48;101067.41;4932402;29;20138;-78
2022/03/26 03:19:35;;;;;;;3.63;1.30;;;;;;;14.66;51.79;101064.72;4932526;29;20061;-78
2022/03/26 03:22:05;;;;;;;2.42;1.50;;;;;;;14.60;51.16;101065.47;4932345;29;20131;-79
2022/03/26 03:24:33;;;;;;;2.67;1.30;;;;;;;14.58;51.36;101067.19;4932173;29;20044;-78
2022/03/26 03:27:03;;;;;;;3.15;1.20;;;;;;;14.54;50.69;101065.34;4932169;29;20135;-79
2022/03/26 03:29:32;;;;;;;2.20;0.73;;;;;;;14.52;50.01;101066.16;4932101;29;20051;-77
2022/03/26 03:32:00;;;;;;;3.13;1.20;;;;;;;14.48;50.43;101069.53;4931773;29;20055;-79
2022/03/26 03:34:29;;;;;;;4.03;1.02;;;;;;;14.42;50.61;101065.97;4932059;29;20118;-80
2022/03/26 03:36:57;;;;;;;2.50;1.25;;;;;;;14.39;50.56;101071.16;4931810;29;20083;-79
2022/03/26 03:39:26;;;;;;;2.42;1.40;;;;;;;14.36;50.89;101065.00;4932183;29;20491;-78
2022/03/26 03:41:54;;;;;;;1.33;1.00;;;;;;;14.31;51.70;101062.28;4931774;29;20083;-79
2022/03/26 03:44:25;;;;;;;5.05;1.52;;;;;;;14.22;52.14;101064.72;4931634;29;20052;-78
2022/03/26 03:46:53;;;;;;;3.33;1.10;;;;;;;14.11;54.49;101063.63;4931319;29;20095;-78
2022/03/26 03:49:22;;;;;;;2.88;1.20;;;;;;;13.96;55.85;101067.69;4935821;29;20094;-78
2022/03/26 03:51:51;;;;;;;2.15;0.95;;;;;;;13.87;58.34;101077.03;4933662;29;20123;-79
2022/03/26 03:54:19;;;;;;;2.15;1.10;;;;;;;13.81;58.86;101072.56;4931926;29;20043;-79
2022/03/26 03:56:48;;;;;;;3.78;0.82;;;;;;;13.78;61.08;101075.09;4932019;29;20111;-78
2022/03/26 03:59:16;;;;;;;3.75;1.42;;;;;;;13.76;59.55;101066.38;4931795;29;20093;-77
2022/03/26 04:01:46;;;;;;;3.13;1.45;;;;;;;13.73;58.73;101069.81;4931959;29;20150;-78
2022/03/26 04:04:15;;;;;;;3.15;1.13;;;;;;;13.63;59.20;101073.06;4931155;29;20142;-78
2022/03/26 04:06:43;;;;;;;5.60;1.92;;;;;;;13.53;59.77;101084.97;4931697;29;20189;-79
2022/03/26 04:09:12;;;;;;;3.97;0.98;;;;;;;13.47;61.23;101086.53;4931371;29;20111;-79
2022/03/26 04:11:47;;;;;;;3.78;0.90;;;;;;;13.34;62.27;101077.59;4933274;28;20064;-79
2022/03/26 04:14:15;;;;;;;2.00;0.88;;;;;;;13.19;60.65;101078.97;4932134;29;20047;-80
2022/03/26 04:16:44;;;;;;;6.90;0.93;;;;;;;13.05;61.42;101085.53;4935703;29;20047;-80
2022/03/26 04:19:14;;;;;;;3.10;0.77;;;;;;;12.92;61.75;101078.28;4935512;29;20055;-79
2022/03/26 04:21:42;;;;;;;2.63;0.88;;;;;;;12.83;62.15;101075.44;4935247;29;20185;-79
2022/03/26 04:24:11;;;;;;;2.03;0.77;;;;;;;12.79;61.84;101070.16;4935335;29;20048;-79
2022/03/26 04:26:39;;;;;;;4.60;1.00;;;;;;;12.85;61.53;101084.16;4935350;29;20103;-79
2022/03/26 04:29:08;;;;;;;1.17;0.88;;;;;;;12.84;61.54;101074.63;4935551;29;20115;-78
2022/03/26 04:31:36;;;;;;;1.35;1.02;;;;;;;12.82;62.19;101082.34;4935623;29;20111;-78
2022/03/26 04:34:05;;;;;;;5.03;1.02;;;;;;;12.76;63.05;101069.22;4935515;29;20111;-79
2022/03/26 04:36:35;;;;;;;1.05;0.60;;;;;;;12.82;62.04;101076.28;4935429;29;20086;-78
2022/03/26 04:39:04;;;;;;;1.67;0.80;;;;;;;12.80;62.53;101071.03;4935615;29;20055;-78
2022/03/26 04:41:32;;;;;;;2.00;1.05;;;;;;;12.79;62.96;101072.78;4935464;29;20115;-78
2022/03/26 04:44:01;;;;;;;1.63;1.00;;;;;;;12.78;63.33;101073.63;4935155;29;20056;-78
2022/03/26 04:46:30;;;;;;;3.03;0.90;;;;;;;12.76;63.49;101077.03;4939164;29;20047;-78
2022/03/26 04:48:58;;;;;;;1.58;0.85;;;;;;;12.73;63.88;101083.00;4935436;29;20044;-78
2022/03/26 04:51:27;;;;;;;3.58;1.10;;;;;;;12.69;62.96;101082.88;4933929;29;20048;-80
2022/03/26 04:53:57;;;;;;;5.45;1.27;;;;;;;12.66;62.36;101086.28;4935000;29;20541;-80
2022/03/26 04:56:25;;;;;;;2.95;1.10;;;;;;;12.64;62.88;101079.28;4935147;29;20059;-81
2022/03/26 04:58:55;;;;;;;2.47;1.30;;;;;;;12.60;62.82;101070.56;4935128;29;20083;-80
2022/03/26 05:01:24;;;;;;;3.55;1.33;;;;;;;12.49;62.60;101061.59;4937420;29;20058;-81
2022/03/26 05:03:52;;;;;;;4.45;1.30;;;;;;;12.50;62.99;101073.72;4936020;29;20169;-80
2022/03/26 05:06:21;;;;;;;2.97;1.23;;;;;;;12.50;62.92;101071.13;4934701;29;20055;-79
2022/03/26 05:08:50;;;;;;;2.47;1.00;;;;;;;12.49;62.96;101071.97;4934419;29;20087;-79
2022/03/26 05:11:20;;;;;;;3.05;1.15;;;;;;;12.43;64.66;101067.50;4934286;28;20134;-80
2022/03/26 05:13:49;;;;;;;1.88;1.08;;;;;;;12.41;65.16;101068.28;4934719;29;20051;-78
2022/03/26 05:16:17;;;;;;;3.20;1.30;;;;;;;12.38;65.46;101063.91;4934681;29;20079;-79
2022/03/26 05:18:46;;;;;;;1.58;1.05;;;;;;;12.39;65.56;101064.78;4933873;29;20490;-79
2022/03/26 05:21:14;;;;;;;2.63;1.38;;;;;;;12.33;65.64;101050.81;4934252;29;20064;-79
2022/03/26 05:23:43;;;;;;;5.97;1.38;;;;;;;12.28;65.21;101047.22;4934094;29;20561;-79
2022/03/26 05:26:11;;;;;;;5.78;1.90;;;;;;;12.24;65.53;101041.91;4933182;29;20051;-80
2022/03/26 05:28:41;;;;;;;5.20;1.65;;;;;;;12.27;65.06;101053.22;4934318;29;20095;-80
2022/03/26 05:31:10;;;;;;;2.40;1.20;;;;;;;12.24;65.47;101053.16;4934517;29;20091;-79
2022/03/26 05:33:38;;;;;;;2.97;1.40;;;;;;;12.20;65.56;101053.88;4934595;29;20470;-79
2022/03/26 05:36:07;;;;;;;3.60;1.23;;;;;;;12.17;66.49;101061.59;4933743;29;20079;-79
2022/03/26 05:38:36;;;;;;;3.78;1.02;;;;;;;12.18;67.47;101063.34;4934260;29;20134;-79
2022/03/26 05:41:04;;;;;;;5.72;1.50;;;;;;;12.17;67.72;101046.03;4934539;29;20051;-79
2022/03/26 05:43:33;;;;;;;2.35;1.45;;;;;;;12.18;67.76;101047.78;4936825;29;20066;-79
2022/03/26 05:46:03;;;;;;;3.97;1.30;;;;;;;12.18;69.24;101042.59;4935343;29;20056;-79
2022/03/26 05:48:32;;;;;;;3.60;0.98;;;;;;;12.19;68.20;101053.88;4934246;29;20055;-79
2022/03/26 05:51:00;;;;;;;5.75;1.20;;;;;;;12.19;66.99;101046.97;4933976;29;20130;-79
2022/03/26 05:53:29;;;;;;;2.83;1.13;;;;;;;12.18;67.49;101040.00;4933937;29;20115;-79
2022/03/26 05:55:57;;;;;;;3.47;1.05;;;;;;;12.17;67.04;101040.84;4933988;29;20052;-80
2022/03/26 05:58:25;;;;;;;2.95;1.00;;;;;;;12.15;67.36;101045.13;4934005;29;20091;-80
2022/03/26 06:00:54;;;;;;;3.30;0.88;;;;;;;12.15;66.92;101045.97;4934038;29;20055;-80
2022/03/26 06:03:24;;;;;;;5.15;1.25;;;;;;;12.11;67.63;101038.06;4933549;29;20115;-79
2022/03/26 06:05:52;;;;;;;4.47;1.48;;;;;;;12.13;68.65;101041.59;4933984;29;20083;-79
2022/03/26 06:08:21;;;;;;;5.68;1.15;;;;;;;12.11;72.54;101045.84;4933400;29;20506;-79
2022/03/26 06:11:02;;;;;;;4.05;1.63;;;;;;;11.99;71.31;101042.94;4935317;28;20102;-79
2022/03/26 06:13:30;;;;;;;2.55;1.25;;;;;;;11.88;70.78;101046.06;4932860;29;20056;-79
2022/03/26 06:15:59;;;;;;;6.03;1.50;;;;;;;11.80;70.42;101044.97;4933485;29;20103;-79
2022/03/26 06:18:29;;;;;;;4.32;1.13;;;;;;;11.77;70.84;101046.56;4933362;29;20123;-79
2022/03/26 06:20:58;;;;;;;4.47;1.27;;;;;;;11.77;70.93;101055.22;4933010;29;20143;-80
2022/03/26 06:23:26;;;;;;;3.65;1.67;;;;;;;11.78;71.39;101044.03;4932227;29;20059;-80
2022/03/26 06:25:54;;;;;;;3.85;1.00;;;;;;;11.70;72.40;101035.16;4932970;29;20048;-79
2022/03/26 06:28:23;;;;;;;1.92;1.00;;;;;;;11.68;74.34;101049.78;4933067;29;20106;-80
2022/03/26 06:30:51;;;;;;;3.22;1.50;;;;;;;11.56;73.07;101052.00;4932914;29;20187;-80
2022/03/26 06:33:22;;;;;;;4.90;1.55;;;;;;;11.48;72.83;101044.88;4933358;29;20051;-79
2022/03/26 06:35:52;;;;;;;3.42;1.30;;;;;;;11.48;73.02;101044.88;4932852;29;20048;-80
2022/03/26 06:38:21;;;;;;;4.38;1.25;;;;;;;11.51;74.55;101039.78;4933607;29;20047;-80
2022/03/26 06:40:50;;;;;;;5.28;1.63;;;;;;;11.57;73.86;101038.19;4937039;29;20111;-80
2022/03/26 06:43:18;;;;;;;3.05;1.30;;;;;;;11.58;73.65;101034.78;4933807;29;20118;-79
2022/03/26 06:45:47;;;;;;;4.88;1.30;;;;;;;11.60;72.47;101044.38;4933215;29;20059;-80
2022/03/26 06:48:15;;;;;;;3.05;1.25;;;;;;;11.62;73.09;101052.19;4933699;29;20055;-80
2022/03/26 06:50:44;;;;;;;2.38;1.52;;;;;;;11.64;73.12;101047.94;4933458;29;20478;-79
2022/03/26 06:53:14;;;;;;;2.15;1.13;;;;;;;11.66;72.30;101054.03;4933104;29;20516;-80
2022/03/26 06:55:42;;;;;;;6.28;1.33;;;;;;;11.64;71.41;101054.00;4936565;29;20062;-80
2022/03/26 06:58:11;;;;;;;1.90;1.08;;;;;;;11.67;70.72;101061.00;4933896;29;20593;-80
2022/03/26 07:00:39;;;;;;;2.15;1.15;;;;;;;11.67;71.29;101066.16;4932937;29;20103;-80
2022/03/26 07:03:08;;;;;;;2.85;1.60;;;;;;;11.67;71.22;101063.56;4932850;29;20055;-80
2022/03/26 07:05:37;;;;;;;3.63;1.15;;;;;;;11.65;70.73;101054.88;4932440;29;20489;-80
2022/03/26 07:08:06;;;;;;;3.20;1.33;;;;;;;11.67;70.53;101055.81;4933211;29;20054;-80
2022/03/26 07:10:36;;;;;;;7.03;1.33;;;;;;;11.64;71.38;101048.81;4932494;29;20051;-81
2022/03/26 07:13:05;;;;;;;2.58;1.45;;;;;;;11.68;70.55;101047.19;4931951;29;20083;-80
2022/03/26 07:15:33;;;;;;;3.08;1.52;;;;;;;11.68;71.24;101048.09;4932043;29;20131;-80
2022/03/26 07:18:01;;;;;;;3.63;1.10;;;;;;;11.68;71.59;101036.81;4932507;29;20094;-80
2022/03/26 07:20:30;;;;;;;2.25;1.35;;;;;;;11.61;71.20;101012.41;4932644;29;20087;-80
2022/03/26 07:22:58;;;;;;;3.60;1.58;;;;;;;11.67;71.02;101017.78;4932033;29;20083;-80
2022/03/26 07:25:29;;;;;;;4.30;1.27;;;;;;;11.62;71.78;101024.56;4931794;29;20707;-81
2022/03/26 07:27:59;;;;;;;2.33;1.20;;;;;;;11.53;73.08;101032.94;4932253;29;20134;-81
2022/03/26 07:30:27;;;;;;;2.42;1.58;;;;;;;11.41;73.75;101014.44;4932301;29;20083;-80
2022/03/26 07:32:56;;;;;;;1.88;1.23;;;;;;;11.30;74.98;101013.22;4932278;29;20047;-80
2022/03/26 07:35:24;;;;;;;2.95;1.30;;;;;;;11.36;74.47;101031.56;4931990;29;20532;-80
2022/03/26 07:37:53;;;;;;;3.03;1.40;;;;;;;11.38;74.77;101032.47;4935200;29;20055;-80
2022/03/26 07:40:21;;;;;;;5.03;1.45;;;;;;;11.38;74.40;101026.41;4932895;29;20135;-80
2022/03/26 07:42:50;;;;;;;4.05;1.88;;;;;;;11.37;74.56;101041.09;4932142;29;20138;-81
2022/03/26 07:45:20;;;;;;;7.22;1.60;;;;;;;11.38;74.19;101048.00;4931847;29;20083;-81
2022/03/26 07:47:48;;;;;;;3.95;1.40;;;;;;;11.41;74.57;101058.50;4931850;29;20086;-80
2022/03/26 07:50:17;;;;;;;2.10;1.38;;;;;;;11.43;74.87;101066.28;4931143;29;20071;-80
2022/03/26 07:52:45;;;;;;;2.13;1.65;;;;;;;11.42;73.85;101070.59;4931936;29;20048;-80
2022/03/26 07:55:13;;;;;;;4.18;1.85;;;;;;;11.42;74.20;101082.69;4931600;29;20090;-81
2022/03/26 07:57:42;;;;;;;2.75;1.80;;;;;;;11.40;74.95;101086.94;4932370;29;20135;-81
2022/03/26 08:00:11;;;;;;;5.15;1.90;;;;;;;11.35;75.75;101094.56;4932835;29;20094;-83
2022/03/26 08:02:41;;;;;;;2.60;1.50;;;;;;;11.32;76.49;101102.25;4932220;29;20056;-81
2022/03/26 08:05:10;;;;;;;5.22;1.58;;;;;;;11.32;76.86;101099.66;4931852;29;20047;-80
2022/03/26 08:07:38;;;;;;;6.32;1.42;;;;;;;11.36;77.67;101090.25;4932718;29;20056;-80
2022/03/26 08:10:07;;;;;;;2.97;1.45;;;;;;;11.38;78.55;101081.69;4931631;29;20094;-80
2022/03/26 08:12:36;;;;;;;2.50;1.20;;;;;;;11.40;77.40;101072.25;4932830;28;20122;-79
2022/03/26 08:15:05;;;;;;;2.80;1.65;;;;;;;11.37;82.01;101079.94;4931761;29;20080;-79
2022/03/26 08:17:34;;;;;;;4.35;1.48;;;;;;;11.28;81.72;101069.28;4931908;29;20418;-80
2022/03/26 08:20:04;;;;;;;2.25;1.25;;;;;;;11.23;83.26;101063.09;4931825;29;20114;-80
2022/03/26 08:22:34;;;;;;;4.32;1.45;;;;;;;11.25;82.41;101051.06;4931845;29;20090;-80
2022/03/26 08:25:03;;;;;;;2.40;1.58;;;;;;;11.27;81.25;101057.16;4931588;29;20127;-80
2022/03/26 08:27:31;;;;;;;4.05;1.42;;;;;;;11.24;82.32;101060.53;4932321;29;20635;-79
2022/03/26 08:30:00;;;;;;;3.78;1.50;;;;;;;11.22;83.16;101066.50;4931782;29;20048;-81
2022/03/26 08:32:28;;;;;;;3.78;1.40;;;;;;;11.23;82.14;101073.47;4932112;29;20055;-79
2022/03/26 08:34:56;;;;;;;3.17;1.20;;;;;;;11.25;82.98;101082.16;4935562;29;20052;-81
2022/03/26 08:37:27;;;;;;;3.75;1.42;;;;;;;11.25;82.62;101077.84;4932487;29;20809;-80
2022/03/26 08:39:55;;;;;;;3.97;1.30;;;;;;;11.26;82.45;101081.31;4932759;29;20073;-80
2022/03/26 08:42:24;;;;;;;4.80;1.38;;;;;;;11.23;82.14;101078.63;4932685;29;20066;-80
2022/03/26 08:44:52;;;;;;;3.40;1.50;;;;;;;11.21;83.38;101070.81;4933121;29;20048;-80
2022/03/26 08:47:21;;;;;;;4.38;1.50;;;;;;;11.19;82.88;101063.81;4931476;29;20637;-80
2022/03/26 08:49:49;;;;;;;2.80;1.00;;;;;;;11.19;83.08;101066.41;4934610;29;20051;-80
2022/03/26 08:52:24;;;;;;;3.03;1.38;;;;;;;11.21;82.84;101064.75;4932575;29;20505;-80
2022/03/26 08:55:01;;;;;;;1.95;1.17;;;;;;;11.17;83.73;101057.72;4932293;29;20493;-78
2022/03/26 08:57:30;;;;;;;1.20;1.10;;;;;;;11.08;85.93;101043.63;4932038;29;20497;-79
2022/03/26 08:59:58;;;;;;;2.95;1.10;;;;;;;11.10;87.24;101054.91;4932453;29;20055;-79
2022/03/26 09:02:27;;;;;;;3.60;1.55;;;;;;;11.04;88.10;101062.50;4935173;29;20569;-80
2022/03/26 09:04:56;;;;;;;1.45;1.00;;;;;;;11.04;86.73;101064.19;5211024;23;20073;-80
2022/03/26 09:07:24;;;;;;;2.63;1.27;;;;;;;11.04;86.71;101072.88;4942843;29;20566;-79
2022/03/26 09:09:53;;;;;;;1.73;1.15;;;;;;;11.06;87.60;101066.03;4953714;29;20082;-80
2022/03/26 09:12:23;;;;;;;4.97;1.50;;;;;;;11.08;86.98;101069.53;4954891;29;20059;-81
2022/03/26 09:14:52;;;;;;;5.60;1.63;;;;;;;11.10;87.04;101073.03;4953383;29;20110;-80
2022/03/26 09:17:20;;;;;;;3.70;1.10;;;;;;;11.11;87.55;101061.00;4953296;29;20052;-80
2022/03/26 09:19:49;;;;;;;5.15;1.40;;;;;;;11.10;87.15;101062.69;4953168;29;20564;-80
2022/03/26 09:22:17;;;;;;;7.13;1.55;;;;;;;11.10;86.71;101073.03;4953895;29;20496;-80
2022/03/26 09:24:45;;;;;;;3.65;1.40;;;;;;;11.10;86.98;101060.09;4953144;29;20106;-80
2022/03/26 09:27:14;;;;;;;2.15;1.25;;;;;;;11.10;87.10;101057.50;4953768;29;20051;-80
2022/03/26 09:29:45;;;;;;;2.40;1.25;;;;;;;11.07;87.48;101066.91;4954239;29;20460;-80
2022/03/26 09:32:13;;;;;;;2.88;1.35;;;;;;;11.03;88.08;101058.13;4954572;29;20058;-79
2022/03/26 09:34:42;;;;;;;5.13;1.20;;;;;;;11.06;87.45;101060.84;4953593;29;20394;-80
2022/03/26 09:37:12;;;;;;;3.28;1.55;;;;;;;11.10;88.01;101062.69;4954044;28;20113;-79
2022/03/26 09:39:41;;;;;;;2.70;1.30;;;;;;;11.11;87.68;101059.28;4954204;28;20047;-81
2022/03/26 09:42:11;;;;;;;5.43;1.10;;;;;;;11.08;88.41;101048.81;4953950;29;20534;-80
2022/03/26 09:44:40;;;;;;;3.55;1.63;;;;;;;11.13;87.77;101055.84;4953619;29;20499;-80
2022/03/26 09:47:11;;;;;;;2.60;1.30;;;;;;;11.13;87.33;101058.44;4954065;29;20126;-80
2022/03/26 09:49:40;;;;;;;3.03;1.25;;;;;;;11.13;87.71;101061.03;4954533;29;20047;-80
2022/03/26 09:52:09;;;;;;;2.70;1.33;;;;;;;11.09;89.88;101058.34;4953425;29;20059;-81
2022/03/26 09:54:38;;;;;;;2.03;1.23;;;;;;;11.01;93.11;101056.34;4953044;29;20083;-80
2022/03/26 09:57:07;;;;;;;4.55;1.25;;;;;;;11.08;95.15;101048.81;4955441;29;20051;-80
2022/03/26 09:59:36;;;;;;;4.35;1.70;;;;;;;11.03;99.35;101044.31;4946649;29;20071;-81
2022/03/26 10:02:05;;;;;;;4.88;1.10;;;;;;;10.99;100.00;101035.56;4936897;29;20083;-80
2022/03/26 10:04:44;;;;;;;6.90;1.55;;;;;;;10.98;100.00;101043.31;4934960;29;20055;-81
2022/03/26 10:07:13;;;;;;;4.38;1.45;;;;;;;10.98;100.00;101036.41;4896224;29;20071;-81
2022/03/26 10:09:42;;;;;;;8.48;1.30;;;;;;;11.00;100.00;101044.22;4896627;29;20060;-81
2022/03/26 10:12:12;;;;;;;3.65;1.38;;;;;;;10.99;100.00;101032.09;4895504;29;20087;-80
2022/03/26 10:14:46;;;;;;;10.77;1.75;;;;;;;11.03;100.00;101033.97;4895768;29;20055;-80
2022/03/26 10:17:17;;;;;;;9.23;1.65;;;;;;;11.03;100.00;101045.19;4896307;29;20055;-81
2022/03/26 10:19:50;;;;;;;3.00;1.40;;;;;;;11.00;100.00;101034.75;4896885;29;20052;-80
2022/03/26 10:22:32;;;;;;;3.95;1.55;;;;;;;11.01;100.00;101039.09;4896564;29;20071;-80
2022/03/26 10:25:03;;;;;;;2.03;1.40;;;;;;;11.03;100.00;101042.59;4896293;29;20093;-81
2022/03/26 10:27:35;;;;;;;3.03;1.20;;;;;;;11.06;100.00;101041.81;4896517;29;20067;-80
2022/03/26 10:30:05;;;;;;;5.38;1.48;;;;;;;11.09;100.00;101040.22;4896302;29;20664;-81
2022/03/26 10:32:39;;;;;;;3.38;1.70;;;;;;;11.11;100.00;101028.22;4897666;29;20044;-81
2022/03/26 10:35:12;;;;;;;3.42;1.73;;;;;;;11.14;100.00;101026.53;4898027;29;20052;-80
2022/03/26 10:37:56;;;;;;;4.07;1.65;;;;;;;11.16;100.00;101019.72;4896588;29;20059;-80
2022/03/26 10:40:31;;;;;;;3.65;1.38;;;;;;;11.16;100.00;101019.72;4895710;29;20052;-80
2022/03/26 10:43:03;;;;;;;3.03;1.63;;;;;;;11.21;100.00;101023.31;4895837;29;20135;-80
2022/03/26 10:45:33;;;;;;;3.92;1.70;;;;;;;11.21;100.00;101008.66;4895719;29;20052;-80
2022/03/26 10:48:03;;;;;;;6.15;1.58;;;;;;;11.24;100.00;101010.44;4896047;29;20048;-81
2022/03/26 10:50:37;;;;;;;4.47;1.40;;;;;;;11.26;100.00;101006.19;4894756;29;20063;-80
2022/03/26 10:53:10;;;;;;;5.38;1.92;;;;;;;11.29;100.00;101007.19;4896152;29;20052;-81
2022/03/26 10:55:44;;;;;;;3.22;1.42;;;;;;;11.32;100.00;101006.38;4897705;29;20052;-81
2022/03/26 10:58:12;;;;;;;4.47;1.90;;;;;;;11.33;100.00;101002.94;4905695;29;20052;-80
2022/03/26 11:00:41;;;;;;;2.30;1.85;;;;;;;11.31;100.00;101004.63;4895991;29;20064;-80
2022/03/26 11:03:09;;;;;;;7.15;2.00;;;;;;;11.26;100.00;101007.06;4895199;29;20139;-81
2022/03/26 11:05:42;;;;;;;4.43;1.70;;;;;;;11.25;100.00;101010.50;4908723;28;20059;-80
2022/03/26 11:08:14;;;;;;;3.78;1.50;;;;;;;11.17;100.00;101000.72;4933263;29;20421;-80
2022/03/26 11:10:43;;;;;;;3.92;1.50;;;;;;;11.24;100.00;101013.03;4933447;29;20548;-79
2022/03/26 11:13:14;;;;;;;3.05;1.50;;;;;;;11.21;100.00;101016.41;4932970;29;20047;-80
2022/03/26 11:15:48;;;;;;;2.30;1.30;;;;;;;11.20;100.00;101021.53;4932270;29;20050;-80
2022/03/26 11:18:38;;;;;;;4.32;1.60;;;;;;;11.21;100.00;101018.13;4932921;29;20048;-80
2022/03/26 11:21:42;;;;;;;5.40;1.52;;;;;;;11.19;100.00;101027.56;4932861;29;20130;-79
2022/03/26 11:25:02;;;;;;;2.03;1.15;;;;;;;11.14;100.00;101023.97;4933370;29;20048;-79
2022/03/26 11:27:47;;;;;;;7.20;1.48;;;;;;;11.06;100.00;101022.00;4910356;29;20052;-83
2022/03/26 11:30:21;;;;;;;3.33;1.15;;;;;;;11.00;100.00;101014.03;4933430;29;20079;-84
2022/03/26 11:32:52;;;;;;;1.90;1.13;;;;;;;10.98;100.00;101020.88;4932990;29;20058;-81
2022/03/26 11:35:21;;;;;;;2.13;0.63;;;;;;;10.96;100.00;101026.84;4932319;29;20490;-80